AU-0088 weather

Couran Cove Resort Helipad
Couran Cove Resort, Queensland, Australia

Public forecast

Using degrees Celsius for public forecast. Weather courtesy of forecast.io.

METAR (pilot weather report)

Closest report is Gold Coast Airport, 21.1 nm (39.0 km) SSE. Retrieved 2019/04/23 09:30 UTC (2 minutes ago):

YBCG 230930Z AUTO 21005KT 9999 // BKN032 BKN040 BKN051 20/19 Q1023 RESHRA

TAF (pilot weather forecast)

Closest forecast is Gold Coast Airport, 21.1 nm (39.0 km) SSE. Retrieved 2019/04/23 06:00 UTC (4 hours ago):

TAF YBCG 230514Z 2306/2406 13012KT 9999 SCT030 FM230900 19008KT 9999 -SHRA SCT020 BKN040 FM232300 13012KT 9999 SCT030 INTER 2312/2319 11015KT 2500 SHRA BKN010